Камери на живо
ЦПИ
02 9374270
ЦКИВП
02 9371284
ЦКИВП
02 9374762
Партньори:
системи за видеонаблюдение
telenor
telesys
УЧИЛИЩЕ ЗА ПИЛОТИ ОЛИМПИЯ ЕР
Еър Ситис ЕООД
Авиационен Център Долна Баня
Камери на живо - sub stream
METAR for:LBSF (Sofia Intl, SO, BG)
Text:LBSF 200330Z 14004KT 110V170 8000 FEW005 OVC027 14/12 Q1015 NOSIG
Conditions at:0330 UTC 20 May 2024
Temperature: 14.0°C ( 57°F)
Dewpoint: 12.0°C ( 54°F) [RH = 88%]
Pressure (altimeter):29.97 inches Hg (1015.0 mb)
Winds:from the SE (140 degrees) at 5 MPH (4 knots; 2.1 m/s)
Visibility:5 sm (8 km)
Ceiling:2700 feet AGL
Clouds:few clouds at 500 feet AGL, overcast cloud deck at 2700 feet AGL

METAR for:LBPD (Plovdiv Arpt, PL, BG)
Text:LBPD 200330Z AUTO 10005KT 1800 BR BKN002/// OVC007/// 14/14 Q1015 TEMPO 0800 BCFG OVC002
Conditions at:0330 UTC 20 May 2024
Temperature: 14.0°C ( 57°F)
Dewpoint: 14.0°C ( 57°F) [RH = 100%]
Pressure (altimeter):29.97 inches Hg (1015.0 mb)
Winds:from the E (100 degrees) at 6 MPH (5 knots; 2.6 m/s)
Visibility:1.12 sm (1.80 km)
Ceiling:200 feet AGL
Clouds:broken clouds at 200 feet AGL, overcast cloud deck at 700 feet AGL
Weather:BR (mist)

METAR for:LBWN (Varna Intl, VA, BG)
Text:LBWN 200330Z AUTO 05004KT 9999 BKN014/// 12/11 Q1015 NOSIG
Conditions at:0330 UTC 20 May 2024
Temperature: 12.0°C ( 54°F)
Dewpoint: 11.0°C ( 52°F) [RH = 94%]
Pressure (altimeter):29.97 inches Hg (1015.0 mb)
Winds:from the NE (50 degrees) at 5 MPH (4 knots; 2.1 m/s)
Visibility:6 or more sm (10+ km)
Ceiling:1400 feet AGL
Clouds:broken clouds at 1400 feet AGL

METAR for:LBBG (Burgas Arpt, BU, BG)
Text:LBBG 200330Z AUTO 04006KT 9999 SCT017/// 11/10 Q1015 NOSIG
Conditions at:0330 UTC 20 May 2024
Temperature: 11.0°C ( 52°F)
Dewpoint: 10.0°C ( 50°F) [RH = 94%]
Pressure (altimeter):29.97 inches Hg (1015.0 mb)
Winds:from the NE (40 degrees) at 7 MPH (6 knots; 3.1 m/s)
Visibility:6 or more sm (10+ km)
Ceiling:at least 12,000 feet AGL
Clouds:scattered clouds at 1700 feet AGL

METAR for:LBGO (Gorna Orechovista Arpt, LO, BG)
Text:LBGO 200330Z AUTO 12002KT 0450 R09/0700U FG VV002 11/11 Q1014 TEMPO 0500 BCFG
Conditions at:0330 UTC 20 May 2024
Temperature: 11.0°C ( 52°F)
Dewpoint: 11.0°C ( 52°F) [RH = 100%]
Pressure (altimeter):29.94 inches Hg (1014.0 mb)
Winds:from the ESE (120 degrees) at 2 MPH (2 knots; 1.0 m/s)
Visibility:0.28 sm (0.45 km)
Ceiling:indefinite ceiling with vertical visibility of 200 feet AGL
Clouds:obscured sky
Weather:FG (fog)

METAR for:LBPG (Graf Ignatievo(AB), PL, BG)
Text:LBPG 200300Z 12004KT 5000 BR OVC006 14/13 Q1015
Conditions at:0300 UTC 20 May 2024
Temperature: 14.0°C ( 57°F)
Dewpoint: 13.0°C ( 55°F) [RH = 94%]
Pressure (altimeter):29.97 inches Hg (1015.0 mb)
Winds:from the ESE (120 degrees) at 5 MPH (4 knots; 2.1 m/s)
Visibility:3 sm (5 km)
Ceiling:600 feet AGL
Clouds:overcast cloud deck at 600 feet AGL
Weather:BR (mist)

METAR for:LBIA (Bezmer(AB), BU, BG)
Text:LBIA 200300Z 02004KT 6000 BKN050 BKN200 12/12 Q1015
Conditions at:0300 UTC 20 May 2024
Temperature: 12.0°C ( 54°F)
Dewpoint: 12.0°C ( 54°F) [RH = 100%]
Pressure (altimeter):29.97 inches Hg (1015.0 mb)
Winds:from the NNE (20 degrees) at 5 MPH (4 knots; 2.1 m/s)
Visibility:4 sm (6 km)
Ceiling:5000 feet AGL
Clouds:broken clouds at 5000 feet AGL, broken clouds at 20000 feet AGL